createdAt,value
2019-03-11T00:00:36.825Z,2.00
2019-03-11T00:03:05.122Z,2.35
2019-03-11T00:05:33.340Z,2.25
2019-03-11T00:08:01.905Z,2.00
2019-03-11T00:10:30.124Z,2.00
2019-03-11T00:12:58.360Z,1.90
2019-03-11T00:15:26.576Z,1.60
2019-03-11T00:17:54.799Z,1.85
2019-03-11T00:20:23.017Z,1.77
2019-03-11T00:22:51.250Z,2.00
2019-03-11T00:25:19.468Z,2.65
2019-03-11T00:28:07.125Z,2.10
2019-03-11T00:30:35.343Z,1.80
2019-03-11T00:33:23.105Z,2.17
2019-03-11T00:35:51.325Z,1.87
2019-03-11T00:38:19.558Z,1.77
2019-03-11T00:40:47.772Z,1.92
2019-03-11T00:43:16.277Z,2.35
2019-03-11T00:45:44.493Z,1.75
2019-03-11T00:48:12.794Z,1.80
2019-03-11T00:50:41.010Z,1.90
2019-03-11T00:53:09.501Z,1.77
2019-03-11T00:55:37.717Z,1.87
2019-03-11T00:58:06.245Z,1.82
2019-03-11T01:00:36.313Z,2.05
2019-03-11T01:03:04.800Z,1.70
2019-03-11T01:05:33.024Z,1.70
2019-03-11T01:08:01.252Z,2.08
2019-03-11T01:10:29.479Z,2.10
2019-03-11T01:12:57.703Z,2.12
2019-03-11T01:15:25.919Z,1.70
2019-03-11T01:17:54.153Z,1.87
2019-03-11T01:20:22.683Z,1.42
2019-03-11T01:22:50.913Z,1.80
2019-03-11T01:25:19.134Z,2.00
2019-03-11T01:27:47.365Z,1.60
2019-03-11T01:30:16.424Z,1.75
2019-03-11T01:32:44.663Z,1.85
2019-03-11T01:35:12.868Z,1.40
2019-03-11T01:37:41.143Z,2.05
2019-03-11T01:40:16.874Z,2.15
2019-03-11T01:42:45.356Z,2.00
2019-03-11T01:45:19.710Z,1.60
2019-03-11T01:47:47.940Z,2.20
2019-03-11T01:50:16.161Z,1.98
2019-03-11T01:52:44.389Z,1.72
2019-03-11T01:55:13.344Z,1.77
2019-03-11T01:57:41.576Z,1.82
2019-03-11T02:00:15.799Z,2.20
2019-03-11T02:02:44.027Z,2.00
2019-03-11T02:05:12.240Z,1.80
2019-03-11T02:07:40.473Z,1.92
2019-03-11T02:10:14.152Z,2.00
2019-03-11T02:12:42.385Z,2.30
2019-03-11T02:15:13.503Z,2.33
2019-03-11T02:20:12.376Z,2.30
2019-03-11T02:22:40.696Z,1.98
2019-03-11T02:25:09.241Z,1.60
2019-03-11T02:27:37.464Z,1.95
2019-03-11T02:30:12.013Z,2.00
2019-03-11T02:32:40.337Z,2.37
2019-03-11T02:35:08.837Z,1.77
2019-03-11T02:37:37.065Z,2.20
2019-03-11T02:40:07.993Z,1.70
2019-03-11T02:42:36.213Z,2.70
2019-03-11T02:45:05.127Z,1.65
2019-03-11T02:47:33.505Z,2.35
2019-03-11T02:50:01.739Z,2.08
2019-03-11T02:52:30.230Z,2.10
2019-03-11T02:54:58.501Z,1.70
2019-03-11T02:57:26.723Z,2.20
2019-03-11T02:59:54.949Z,1.80
2019-03-11T03:02:27.517Z,2.25
2019-03-11T03:04:57.385Z,1.82
2019-03-11T03:07:25.921Z,2.12
2019-03-11T03:09:54.148Z,1.70
2019-03-11T03:12:22.367Z,2.30
2019-03-11T03:14:50.622Z,2.83
2019-03-11T03:17:18.893Z,1.87
2019-03-11T03:19:47.400Z,2.15
2019-03-11T03:22:15.617Z,1.72
2019-03-11T03:24:43.853Z,1.82
2019-03-11T03:27:12.079Z,2.30
2019-03-11T03:29:40.300Z,2.20
2019-03-11T03:32:08.523Z,2.00
2019-03-11T03:34:36.832Z,2.15
2019-03-11T03:37:05.037Z,2.05
2019-03-11T03:39:33.349Z,1.62
2019-03-11T03:42:01.555Z,1.77
2019-03-11T03:44:29.786Z,2.17
2019-03-11T03:46:58.026Z,1.98
2019-03-11T03:49:26.246Z,1.90
2019-03-11T03:51:54.474Z,2.27
2019-03-11T03:54:22.778Z,1.90
2019-03-11T03:56:53.884Z,2.85
2019-03-11T03:59:20.945Z,1.92
2019-03-11T04:01:49.432Z,2.37
2019-03-11T04:04:17.661Z,2.20
2019-03-11T04:06:45.876Z,2.20
2019-03-11T04:09:14.109Z,2.10
2019-03-11T04:11:42.348Z,3.15
2019-03-11T04:14:10.577Z,2.62
2019-03-11T04:16:38.798Z,1.98
2019-03-11T04:19:07.018Z,2.25
2019-03-11T04:21:35.253Z,1.95
2019-03-11T04:24:03.474Z,2.30
2019-03-11T04:26:31.713Z,1.75
2019-03-11T04:28:59.927Z,1.85
2019-03-11T04:31:28.167Z,2.20
2019-03-11T04:33:56.377Z,2.10
2019-03-11T04:36:24.608Z,2.25
2019-03-11T04:38:53.169Z,1.35
2019-03-11T04:41:21.400Z,2.47
2019-03-11T04:43:49.627Z,2.02
2019-03-11T04:46:17.931Z,2.22
2019-03-11T04:48:46.153Z,2.00
2019-03-11T04:51:14.380Z,2.10
2019-03-11T04:53:42.592Z,2.52
2019-03-11T04:56:10.825Z,1.67
2019-03-11T04:58:39.037Z,1.92
2019-03-11T05:01:07.265Z,1.57
2019-03-11T05:03:35.496Z,1.40
2019-03-11T05:06:03.749Z,1.60
2019-03-11T05:08:31.964Z,1.47
2019-03-11T05:11:00.260Z,1.42
2019-03-11T05:13:28.580Z,1.22
2019-03-11T05:15:56.812Z,1.02
2019-03-11T05:18:25.287Z,0.93
2019-03-11T05:20:53.512Z,0.90
2019-03-11T05:23:21.727Z,1.27
2019-03-11T05:25:50.219Z,1.00
2019-03-11T05:28:18.427Z,1.30
2019-03-11T05:30:46.660Z,1.30
2019-03-11T05:33:14.877Z,1.25
2019-03-11T05:35:43.104Z,1.27
2019-03-11T05:38:11.321Z,1.20
2019-03-11T05:40:39.551Z,1.10
2019-03-11T05:43:07.769Z,1.10
2019-03-11T05:45:36.293Z,1.10
2019-03-11T05:48:04.510Z,0.98
2019-03-11T05:50:32.747Z,1.07
2019-03-11T05:53:00.956Z,0.90
2019-03-11T05:55:29.191Z,1.00
2019-03-11T05:57:57.398Z,0.82
2019-03-11T06:00:30.490Z,0.80
2019-03-11T06:02:58.968Z,0.90
2019-03-11T06:05:27.197Z,0.80
2019-03-11T06:07:55.411Z,0.60
2019-03-11T06:10:23.659Z,0.90
2019-03-11T06:12:51.893Z,0.65
2019-03-11T06:15:20.116Z,0.93
2019-03-11T06:17:48.463Z,0.42
2019-03-11T06:20:28.021Z,0.47
2019-03-11T06:22:56.957Z,0.60
2019-03-11T06:25:25.187Z,0.50
2019-03-11T06:27:53.427Z,0.70
2019-03-11T06:30:21.706Z,0.68
2019-03-11T06:32:49.955Z,0.55
2019-03-11T06:35:18.181Z,0.60
2019-03-11T06:37:46.397Z,0.57
2019-03-11T06:40:14.628Z,1.07
2019-03-11T06:43:02.342Z,1.30
2019-03-11T06:45:30.576Z,0.50
2019-03-11T06:47:59.079Z,0.47
2019-03-11T06:50:27.307Z,0.30
2019-03-11T06:52:55.530Z,0.60
2019-03-11T06:55:23.752Z,0.60
2019-03-11T06:57:52.040Z,0.50
2019-03-11T07:00:21.400Z,0.37
2019-03-11T07:02:49.634Z,0.50
2019-03-11T07:05:20.378Z,0.53
2019-03-11T07:07:47.804Z,1.25
2019-03-11T07:10:16.589Z,0.53
2019-03-11T07:12:44.945Z,0.50
2019-03-11T07:15:14.400Z,0.68
2019-03-11T07:17:42.638Z,0.50
2019-03-11T07:20:13.633Z,0.53
2019-03-11T07:25:09.863Z,0.45
2019-03-11T07:27:38.089Z,0.53
2019-03-11T07:30:17.718Z,0.50
2019-03-11T07:32:45.953Z,0.60
2019-03-11T07:35:14.169Z,1.07
2019-03-11T07:37:42.396Z,0.60
2019-03-11T07:40:15.581Z,0.40
2019-03-11T07:42:43.832Z,0.80
2019-03-11T07:45:13.078Z,1.27
2019-03-11T07:47:41.304Z,0.75
2019-03-11T07:50:10.655Z,0.85
2019-03-11T07:52:39.056Z,0.60
2019-03-11T07:55:09.368Z,0.80
2019-03-11T07:57:37.598Z,0.72
2019-03-11T08:00:18.691Z,0.65
2019-03-11T08:05:14.473Z,0.80
2019-03-11T08:07:42.705Z,0.90
2019-03-11T08:10:19.400Z,1.10
2019-03-11T08:12:47.743Z,0.65
2019-03-11T08:15:16.711Z,0.80
2019-03-11T08:17:45.271Z,0.70
2019-03-11T08:20:14.563Z,0.80
2019-03-11T08:22:42.853Z,0.60
2019-03-11T08:25:12.108Z,0.90
2019-03-11T08:27:40.338Z,0.75
2019-03-11T08:30:19.277Z,1.87
2019-03-11T08:32:47.509Z,0.75
2019-03-11T08:35:15.732Z,0.65
2019-03-11T08:37:43.961Z,0.70
2019-03-11T08:40:13.917Z,0.65
2019-03-11T08:42:42.144Z,0.90
2019-03-11T08:45:12.302Z,0.80
2019-03-11T08:47:40.538Z,0.90
2019-03-11T08:50:10.993Z,0.80
2019-03-11T08:52:39.221Z,0.90
2019-03-11T08:55:07.609Z,1.05
2019-03-11T08:57:36.111Z,1.65
2019-03-11T09:00:15.338Z,1.95
2019-03-11T09:02:43.564Z,1.57
2019-03-11T09:05:12.296Z,1.70
2019-03-11T09:07:40.532Z,1.25
2019-03-11T09:10:16.632Z,1.00
2019-03-11T09:12:44.861Z,0.98
2019-03-11T09:15:15.176Z,1.00
2019-03-11T09:17:43.419Z,0.93
2019-03-11T09:20:15.773Z,0.85
2019-03-11T09:22:44.256Z,0.90
2019-03-11T09:25:15.175Z,0.88
2019-03-11T09:27:43.401Z,0.80
2019-03-11T09:30:16.947Z,1.02
2019-03-11T09:32:45.185Z,0.80
2019-03-11T09:35:13.400Z,0.90
2019-03-11T09:37:41.652Z,0.72
2019-03-11T09:40:12.288Z,0.90
2019-03-11T09:42:40.517Z,0.75
2019-03-11T09:45:11.439Z,0.80
2019-03-11T09:47:39.661Z,0.75
2019-03-11T09:50:10.280Z,1.20
2019-03-11T09:52:38.509Z,1.07
2019-03-11T09:55:14.752Z,0.78
2019-03-11T09:57:43.268Z,1.00
2019-03-11T10:00:25.638Z,0.95
2019-03-11T10:02:53.860Z,0.85
2019-03-11T10:05:22.076Z,1.00
2019-03-11T10:07:50.394Z,1.10
2019-03-11T10:10:21.963Z,0.60
2019-03-11T10:12:50.439Z,0.70
2019-03-11T10:15:19.696Z,1.40
2019-03-11T10:17:47.929Z,0.57
2019-03-11T10:20:20.508Z,0.85
2019-03-11T10:22:48.809Z,0.62
2019-03-11T10:25:17.771Z,0.65
2019-03-11T10:27:46.341Z,0.80
2019-03-11T10:30:17.352Z,0.80
2019-03-11T10:32:45.920Z,0.70
2019-03-11T10:35:30.864Z,0.62
2019-03-11T10:37:45.729Z,0.80
2019-03-11T10:40:24.292Z,0.72
2019-03-11T10:42:52.517Z,0.60
2019-03-11T10:45:30.348Z,0.60
2019-03-11T10:47:50.712Z,0.40
2019-03-11T10:50:19.673Z,0.85
2019-03-11T10:52:47.969Z,0.53
2019-03-11T10:55:22.356Z,0.60
2019-03-11T10:57:50.584Z,0.60
2019-03-11T11:00:34.736Z,0.60
2019-03-11T11:03:02.972Z,0.60
2019-03-11T11:05:31.187Z,1.20
2019-03-11T11:07:59.729Z,0.70
2019-03-11T11:10:27.940Z,0.60
2019-03-11T11:12:56.481Z,0.75
2019-03-11T11:15:25.636Z,0.60
2019-03-11T11:17:53.869Z,0.50
2019-03-11T11:20:22.735Z,0.90
2019-03-11T11:22:51.394Z,1.02
2019-03-11T11:25:21.913Z,0.60
2019-03-11T11:27:50.206Z,0.82
2019-03-11T11:30:25.180Z,0.68
2019-03-11T11:32:53.753Z,0.75
2019-03-11T11:35:22.233Z,0.70
2019-03-11T11:37:50.718Z,0.78
2019-03-11T11:40:24.121Z,0.50
2019-03-11T11:42:52.356Z,0.78
2019-03-11T11:45:21.707Z,0.90
2019-03-11T11:47:49.936Z,0.90
2019-03-11T11:50:19.692Z,0.82
2019-03-11T11:52:47.920Z,0.80
2019-03-11T11:55:17.277Z,0.80
2019-03-11T11:57:45.505Z,0.75
2019-03-11T12:00:19.864Z,0.68
2019-03-11T12:02:48.096Z,0.98
2019-03-11T12:05:16.955Z,0.78
2019-03-11T12:07:45.418Z,0.60
2019-03-11T12:10:19.160Z,1.05
2019-03-11T12:12:47.408Z,0.82
2019-03-11T12:15:15.624Z,0.98
2019-03-11T12:17:43.967Z,0.80
2019-03-11T12:20:17.132Z,1.05
2019-03-11T12:22:45.364Z,0.60
2019-03-11T12:25:15.653Z,1.30
2019-03-11T12:27:53.196Z,0.70
2019-03-11T12:30:28.037Z,0.72
2019-03-11T12:32:56.260Z,0.70
2019-03-11T12:35:24.550Z,0.90
2019-03-11T12:37:52.848Z,0.90
2019-03-11T12:40:21.066Z,0.80
2019-03-11T12:42:49.328Z,0.80
2019-03-11T12:45:19.657Z,0.70
2019-03-11T12:47:47.971Z,1.10
2019-03-11T12:50:52.478Z,1.00
2019-03-11T12:53:21.037Z,0.82
2019-03-11T12:55:49.259Z,0.68
2019-03-11T12:58:17.472Z,0.78
2019-03-11T13:00:45.688Z,0.70
2019-03-11T13:03:13.920Z,0.88
2019-03-11T13:05:42.141Z,1.07
2019-03-11T13:08:10.377Z,0.82
2019-03-11T13:10:38.685Z,0.98
2019-03-11T13:13:07.145Z,1.10
2019-03-11T13:15:35.361Z,1.20
2019-03-11T13:18:29.093Z,0.90
2019-03-11T13:20:57.576Z,1.40
2019-03-11T13:23:25.804Z,1.30
2019-03-11T13:25:54.029Z,0.55
2019-03-11T13:28:22.255Z,0.80
2019-03-11T13:30:50.481Z,0.90
2019-03-11T13:33:18.715Z,0.70
2019-03-11T13:35:46.928Z,1.12
2019-03-11T13:38:15.172Z,1.10
2019-03-11T13:40:43.405Z,1.90
2019-03-11T13:43:11.644Z,1.35
2019-03-11T13:45:39.861Z,1.05
2019-03-11T13:48:08.101Z,0.70
2019-03-11T13:50:36.332Z,0.80
2019-03-11T13:53:04.566Z,0.88
2019-03-11T13:55:32.784Z,0.80
2019-03-11T13:58:01.020Z,0.90
2019-03-11T14:00:29.244Z,0.78
2019-03-11T14:02:57.472Z,0.90
2019-03-11T14:05:25.689Z,0.80
2019-03-11T14:07:53.940Z,1.07
2019-03-11T14:10:22.160Z,1.00
2019-03-11T14:12:50.384Z,0.90
2019-03-11T14:15:20.618Z,1.00
2019-03-11T14:17:48.844Z,0.97
2019-03-11T14:20:17.061Z,0.70
2019-03-11T14:22:45.293Z,1.00
2019-03-11T14:25:14.246Z,1.10
2019-03-11T14:27:42.478Z,1.05
2019-03-11T14:30:15.773Z,1.10
2019-03-11T14:32:44.002Z,1.40
2019-03-11T14:35:12.778Z,1.40
2019-03-11T14:37:40.988Z,0.95
2019-03-11T14:40:13.881Z,0.88
2019-03-11T14:42:42.125Z,1.07
2019-03-11T14:45:16.430Z,1.35
2019-03-11T14:47:44.664Z,0.88
2019-03-11T14:50:13.806Z,1.17
2019-03-11T14:52:42.052Z,0.82
2019-03-11T14:55:11.296Z,0.75
2019-03-11T14:57:39.544Z,0.90
2019-03-11T15:00:18.888Z,1.10
2019-03-11T15:02:47.235Z,1.20
2019-03-11T15:05:16.941Z,0.95
2019-03-11T15:07:45.609Z,0.95
2019-03-11T15:10:15.059Z,0.90
2019-03-11T15:12:43.311Z,0.80
2019-03-11T15:15:14.861Z,1.12
2019-03-11T15:17:43.076Z,0.98
2019-03-11T15:20:11.556Z,0.88
2019-03-11T15:22:39.764Z,0.88
2019-03-11T15:25:12.593Z,0.90
2019-03-11T15:27:40.981Z,0.90
2019-03-11T15:30:20.431Z,1.17
2019-03-11T15:32:48.657Z,1.02
2019-03-11T15:35:16.897Z,0.95
2019-03-11T15:37:45.224Z,1.10
2019-03-11T15:40:17.305Z,0.95
2019-03-11T15:42:45.525Z,1.02
2019-03-11T15:45:16.043Z,1.40
2019-03-11T15:47:44.253Z,2.70
2019-03-11T15:50:26.744Z,1.80
2019-03-11T15:52:54.977Z,1.72
2019-03-11T15:55:23.193Z,1.25
2019-03-11T15:57:51.412Z,1.20
2019-03-11T16:00:20.980Z,1.40
2019-03-11T16:02:49.228Z,1.20
2019-03-11T16:05:18.991Z,1.65
2019-03-11T16:07:47.372Z,1.50
2019-03-11T16:10:17.281Z,1.05
2019-03-11T16:12:45.773Z,1.57
2019-03-11T16:15:14.651Z,1.37
2019-03-11T16:17:43.161Z,1.60
2019-03-11T16:20:19.258Z,1.62
2019-03-11T16:22:47.712Z,1.62
2019-03-11T16:25:16.253Z,1.30
2019-03-11T16:27:44.475Z,1.40
2019-03-11T16:30:15.979Z,1.30
2019-03-11T16:32:57.875Z,1.05
2019-03-11T16:35:14.477Z,0.95
2019-03-11T16:37:42.696Z,1.40
2019-03-11T16:40:14.968Z,0.90
2019-03-11T16:42:43.212Z,1.05
2019-03-11T16:45:12.786Z,0.88
2019-03-11T16:47:41.007Z,1.30
2019-03-11T16:50:19.871Z,1.27
2019-03-11T16:52:48.096Z,1.00
2019-03-11T16:55:20.792Z,1.22
2019-03-11T16:57:48.993Z,1.00
2019-03-11T17:00:23.464Z,1.20
2019-03-11T17:02:51.695Z,1.17
2019-03-11T17:05:19.904Z,1.57
2019-03-11T17:07:48.147Z,1.60
2019-03-11T17:10:18.023Z,1.42
2019-03-11T17:12:46.228Z,1.35
2019-03-11T17:15:14.532Z,1.20
2019-03-11T17:17:43.183Z,1.52
2019-03-11T17:20:30.860Z,1.20
2019-03-11T17:22:59.075Z,1.57
2019-03-11T17:25:27.310Z,3.02
2019-03-11T17:27:55.801Z,1.55
2019-03-11T17:30:27.356Z,1.57
2019-03-11T17:32:55.576Z,1.30
2019-03-11T17:35:23.813Z,1.50
2019-03-11T17:37:52.050Z,2.05
2019-03-11T17:40:24.451Z,1.72
2019-03-11T17:42:52.860Z,1.95
2019-03-11T17:45:21.193Z,1.75
2019-03-11T17:47:49.417Z,1.10
2019-03-11T17:50:18.789Z,1.32
2019-03-11T17:52:47.010Z,1.50
2019-03-11T17:55:17.425Z,1.50
2019-03-11T17:57:45.965Z,1.87
2019-03-11T18:00:20.989Z,1.22
2019-03-11T18:02:49.285Z,1.22
2019-03-11T18:05:17.528Z,1.57
2019-03-11T18:07:46.037Z,1.20
2019-03-11T18:10:14.263Z,1.10
2019-03-11T18:12:42.485Z,1.50
2019-03-11T18:15:12.850Z,1.22
2019-03-11T18:17:41.293Z,1.30
2019-03-11T18:20:14.820Z,1.70
2019-03-11T18:22:43.035Z,1.05
2019-03-11T18:25:15.660Z,1.20
2019-03-11T18:27:43.885Z,1.37
2019-03-11T18:30:17.957Z,1.70
2019-03-11T18:32:46.378Z,1.50
2019-03-11T18:35:14.735Z,1.10
2019-03-11T18:37:42.996Z,1.30
2019-03-11T18:40:13.966Z,1.30
2019-03-11T18:42:42.219Z,1.60
2019-03-11T18:45:12.127Z,1.60
2019-03-11T18:47:40.381Z,1.60
2019-03-11T18:50:11.769Z,1.60
2019-03-11T18:52:40.028Z,1.70
2019-03-11T18:55:10.207Z,1.60
2019-03-11T18:57:38.507Z,1.50
2019-03-11T19:00:12.435Z,2.08
2019-03-11T19:02:40.813Z,2.17
2019-03-11T19:05:12.051Z,1.85
2019-03-11T19:07:40.337Z,1.90
2019-03-11T19:10:11.006Z,1.95
2019-03-11T19:12:40.440Z,2.15
2019-03-11T19:15:14.992Z,1.77
2019-03-11T19:17:43.579Z,1.80
2019-03-11T19:20:22.377Z,1.87
2019-03-11T19:22:50.671Z,1.95
2019-03-11T19:25:18.962Z,2.20
2019-03-11T19:27:47.250Z,2.35
2019-03-11T19:30:25.984Z,2.15
2019-03-11T19:32:54.688Z,2.10
2019-03-11T19:35:23.041Z,2.15
2019-03-11T19:37:51.504Z,1.70
2019-03-11T19:40:21.170Z,1.60
2019-03-11T19:42:49.426Z,1.77
2019-03-11T19:45:17.883Z,1.65
2019-03-11T19:47:46.168Z,1.80
2019-03-11T19:50:15.738Z,2.20
2019-03-11T19:52:44.037Z,1.72
2019-03-11T19:55:12.262Z,1.70
2019-03-11T19:57:40.637Z,1.90
2019-03-11T20:00:17.456Z,1.82
2019-03-11T20:02:46.072Z,1.80
2019-03-11T20:05:16.689Z,4.62
2019-03-11T20:07:45.000Z,5.17
2019-03-11T20:10:13.333Z,2.00
2019-03-11T20:12:41.654Z,1.85
2019-03-11T20:15:11.514Z,1.70
2019-03-11T20:17:39.806Z,1.70
2019-03-11T20:20:10.849Z,1.52
2019-03-11T20:25:10.028Z,1.55
2019-03-11T20:27:38.643Z,1.45
2019-03-11T20:30:13.224Z,1.67
2019-03-11T20:32:41.601Z,1.62
2019-03-11T20:35:09.909Z,1.60
2019-03-11T20:37:38.584Z,1.30
2019-03-11T20:40:09.822Z,1.72
2019-03-11T20:42:38.438Z,1.22
2019-03-11T20:45:12.747Z,1.25
2019-03-11T20:47:41.612Z,1.32
2019-03-11T20:50:12.125Z,5.17
2019-03-11T20:52:40.663Z,6.08
2019-03-11T20:55:11.517Z,2.72
2019-03-11T20:57:39.802Z,1.75
2019-03-11T21:00:11.540Z,1.52
2019-03-11T21:02:40.236Z,1.05
2019-03-11T21:05:11.554Z,1.07
2019-03-11T21:07:39.875Z,1.20
2019-03-11T21:10:11.402Z,1.30
2019-03-11T21:12:39.952Z,1.65
2019-03-11T21:15:10.684Z,1.37
2019-03-11T21:17:43.406Z,1.25
2019-03-11T21:20:14.311Z,1.22
2019-03-11T21:22:42.896Z,1.47
2019-03-11T21:25:18.782Z,1.40
2019-03-11T21:27:47.124Z,1.32
2019-03-11T21:30:17.480Z,1.00
2019-03-11T21:32:45.750Z,1.12
2019-03-11T21:35:14.067Z,1.22
2019-03-11T21:37:42.732Z,1.27
2019-03-11T21:40:16.477Z,1.50
2019-03-11T21:42:44.786Z,1.62
2019-03-11T21:45:15.502Z,1.17
2019-03-11T21:47:43.820Z,1.15
2019-03-11T21:50:22.395Z,1.27
2019-03-11T21:52:50.631Z,1.30
2019-03-11T21:55:19.042Z,1.40
2019-03-11T21:57:47.453Z,1.40
2019-03-11T22:00:34.109Z,0.98
2019-03-11T22:02:59.710Z,1.20
2019-03-11T22:05:27.420Z,1.22
2019-03-11T22:07:55.653Z,1.50
2019-03-11T22:10:23.976Z,3.87
2019-03-11T22:12:52.297Z,3.58
2019-03-11T22:15:22.064Z,2.00
2019-03-11T22:17:50.302Z,1.30
2019-03-11T22:20:18.664Z,1.27
2019-03-11T22:22:47.149Z,1.10
2019-03-11T22:25:17.484Z,1.30
2019-03-11T22:27:45.737Z,1.30
2019-03-11T22:30:24.887Z,1.98
2019-03-11T22:32:53.114Z,1.30
2019-03-11T22:35:21.388Z,1.45
2019-03-11T22:37:49.662Z,1.40
2019-03-11T22:40:18.855Z,1.20
2019-03-11T22:42:47.490Z,1.00
2019-03-11T22:45:19.884Z,1.62
2019-03-11T22:47:48.947Z,1.52
2019-03-11T22:50:17.985Z,1.40
2019-03-11T22:52:47.747Z,1.57
2019-03-11T22:55:18.148Z,1.37
2019-03-11T22:57:46.374Z,1.60
2019-03-11T23:00:25.061Z,1.30
2019-03-11T23:02:53.324Z,1.62
2019-03-11T23:05:21.888Z,1.40
2019-03-11T23:07:50.163Z,1.25
2019-03-11T23:10:18.380Z,1.45
2019-03-11T23:12:46.701Z,1.40
2019-03-11T23:15:14.925Z,1.37
2019-03-11T23:17:43.181Z,1.25
2019-03-11T23:20:11.485Z,1.22
2019-03-11T23:22:39.713Z,1.40
2019-03-11T23:25:08.304Z,1.50
2019-03-11T23:27:36.525Z,1.30
2019-03-11T23:30:14.499Z,1.70
2019-03-11T23:32:42.725Z,1.12
2019-03-11T23:35:11.243Z,1.20
2019-03-11T23:37:39.493Z,1.32
2019-03-11T23:40:09.026Z,1.50
2019-03-11T23:42:37.253Z,1.42
2019-03-11T23:45:10.206Z,1.32
2019-03-11T23:47:38.475Z,1.35
2019-03-11T23:50:12.425Z,1.00
2019-03-11T23:52:40.660Z,1.45
2019-03-11T23:55:10.131Z,1.57
2019-03-11T23:57:38.345Z,1.15
